createdAt,value
2022-08-05T00:00:02.950Z,78.69
2022-08-05T00:01:27.393Z,77.80
2022-08-05T00:02:07.846Z,77.29
2022-08-05T00:03:03.410Z,78.29
2022-08-05T00:04:03.437Z,79.78
2022-08-05T00:05:05.698Z,80.97
2022-08-05T00:06:21.185Z,80.27
2022-08-05T00:07:26.963Z,80.87
2022-08-05T00:08:03.793Z,78.49
2022-08-05T00:09:03.821Z,78.39
2022-08-05T00:10:03.661Z,79.08
2022-08-05T00:11:03.716Z,77.69
2022-08-05T00:12:03.368Z,77.29
2022-08-05T00:13:03.394Z,77.50
2022-08-05T00:14:12.835Z,77.69
2022-08-05T00:15:54.404Z,78.09
2022-08-05T00:16:03.782Z,78.09
2022-08-05T00:17:03.542Z,80.47
2022-08-05T00:18:04.086Z,80.51
2022-08-05T00:19:04.437Z,82.79
2022-08-05T00:20:04.115Z,80.91
2022-08-05T00:21:04.620Z,81.11
2022-08-05T00:22:04.511Z,81.11
2022-08-05T00:23:12.800Z,81.40
2022-08-05T00:24:10.028Z,81.40
2022-08-05T00:25:03.997Z,80.71
2022-08-05T00:26:03.629Z,81.11
2022-08-05T00:27:04.534Z,80.31
2022-08-05T00:28:03.185Z,80.91
2022-08-05T00:29:03.549Z,79.52
2022-08-05T00:30:03.625Z,80.81
2022-08-05T00:31:04.403Z,79.62
2022-08-05T00:32:13.295Z,80.61
2022-08-05T00:33:03.753Z,81.84
2022-08-05T00:34:55.859Z,81.24
2022-08-05T00:35:07.627Z,79.96
2022-08-05T00:36:15.920Z,79.56
2022-08-05T00:37:10.449Z,79.16
2022-08-05T00:38:03.281Z,78.86
2022-08-05T00:39:03.516Z,78.47
2022-08-05T00:40:03.494Z,78.36
2022-08-05T00:41:03.463Z,78.36
2022-08-05T00:42:03.578Z,78.66
2022-08-05T00:43:07.399Z,78.36
2022-08-05T00:44:03.832Z,78.27
2022-08-05T00:45:04.063Z,78.06
2022-08-05T00:46:03.633Z,78.17
2022-08-05T00:47:04.237Z,80.45
2022-08-05T00:48:05.163Z,78.76
2022-08-05T00:49:03.345Z,82.04
2022-08-05T00:50:03.679Z,82.04
2022-08-05T00:51:08.966Z,80.75
2022-08-05T00:52:03.671Z,78.56
2022-08-05T00:53:09.494Z,78.00
2022-08-05T00:54:03.570Z,77.91
2022-08-05T00:55:04.151Z,78.11
2022-08-05T00:56:04.032Z,77.91
2022-08-05T00:57:04.177Z,77.81
2022-08-05T00:58:04.737Z,77.70
2022-08-05T00:59:06.973Z,77.81
2022-08-05T01:00:04.442Z,78.00
2022-08-05T01:01:08.606Z,79.60
2022-08-05T01:02:02.305Z,79.39
2022-08-05T01:03:02.272Z,79.99
2022-08-05T01:04:01.864Z,79.20
2022-08-05T01:05:01.863Z,79.50
2022-08-05T01:06:02.582Z,79.69
2022-08-05T01:06:19.515Z,79.39
2022-08-05T01:07:15.591Z,79.30
2022-08-05T01:08:40.002Z,78.80
2022-08-05T01:09:17.379Z,79.39
2022-08-05T01:10:16.040Z,79.24
2022-08-05T01:11:22.473Z,79.90
2022-08-05T01:11:22.646Z,79.60
2022-08-05T01:12:05.334Z,79.73
2022-08-05T01:13:19.266Z,79.53
2022-08-05T01:14:08.578Z,79.63
2022-08-05T01:15:05.906Z,80.13
2022-08-05T01:16:05.722Z,79.43
2022-08-05T01:17:05.354Z,80.13
2022-08-05T01:18:05.097Z,79.53
2022-08-05T01:19:05.556Z,79.14
2022-08-05T01:20:05.741Z,78.84
2022-08-05T01:21:05.573Z,78.74
2022-08-05T01:22:06.089Z,78.74
2022-08-05T01:23:15.252Z,79.24
2022-08-05T01:24:14.200Z,79.24
2022-08-05T01:25:06.316Z,78.74
2022-08-05T01:26:05.817Z,78.64
2022-08-05T01:27:17.857Z,78.54
2022-08-05T01:28:06.208Z,78.34
2022-08-05T01:29:06.519Z,78.24
2022-08-05T01:30:18.719Z,78.34
2022-08-05T01:31:06.356Z,78.54
2022-08-05T01:32:05.439Z,78.58
2022-08-05T01:33:06.102Z,78.38
2022-08-05T01:34:05.803Z,78.48
2022-08-05T01:35:10.394Z,78.58
2022-08-05T01:36:05.476Z,78.67
2022-08-05T01:37:05.983Z,78.58
2022-08-05T01:38:06.034Z,78.78
2022-08-05T01:39:05.619Z,84.15
2022-08-05T01:40:06.065Z,82.26
2022-08-05T01:41:05.656Z,82.16
2022-08-05T01:42:06.195Z,80.77
2022-08-05T01:43:06.024Z,79.97
2022-08-05T01:44:05.803Z,79.67
2022-08-05T01:45:08.222Z,79.27
2022-08-05T01:46:07.447Z,79.08
2022-08-05T01:47:06.781Z,79.27
2022-08-05T01:48:10.230Z,78.97
2022-08-05T01:49:22.642Z,78.78
2022-08-05T01:50:05.863Z,78.78
2022-08-05T01:51:08.685Z,78.48
2022-08-05T01:52:12.373Z,78.48
2022-08-05T01:53:06.002Z,78.52
2022-08-05T01:54:05.442Z,79.01
2022-08-05T01:55:05.670Z,78.91
2022-08-05T01:56:06.086Z,79.01
2022-08-05T01:58:09.567Z,78.72
2022-08-05T01:58:10.638Z,78.81
2022-08-05T01:59:06.352Z,78.72
2022-08-05T02:00:06.239Z,79.71
2022-08-05T02:01:06.697Z,80.00
2022-08-05T02:02:06.221Z,79.81
2022-08-05T02:03:06.007Z,81.30
2022-08-05T02:04:06.318Z,81.01
2022-08-05T02:05:06.053Z,81.40
2022-08-05T02:06:24.218Z,80.51
2022-08-05T02:06:37.298Z,80.41
2022-08-05T02:06:50.905Z,80.51
2022-08-05T02:08:00.420Z,81.10
2022-08-05T02:08:58.015Z,80.51
2022-08-05T02:09:51.138Z,81.20
2022-08-05T02:10:51.048Z,81.50
2022-08-05T02:11:33.234Z,81.01
2022-08-05T02:12:21.875Z,80.44
2022-08-05T02:13:21.963Z,81.50
2022-08-05T02:14:21.794Z,83.13
2022-08-05T02:15:21.562Z,82.40
2022-08-05T02:16:22.073Z,81.20
2022-08-05T02:16:27.624Z,81.20
2022-08-05T02:17:03.624Z,81.50
2022-08-05T02:18:32.588Z,81.54
2022-08-05T02:19:07.260Z,80.84
2022-08-05T02:20:03.773Z,81.64
2022-08-05T02:21:04.429Z,81.54
2022-08-05T02:22:03.128Z,82.84
2022-08-05T02:23:03.048Z,82.64
2022-08-05T02:24:03.586Z,83.03
2022-08-05T02:25:03.114Z,84.23
2022-08-05T02:26:03.266Z,84.13
2022-08-05T02:27:09.877Z,84.03
2022-08-05T02:28:08.880Z,85.62
2022-08-05T02:29:04.123Z,85.72
2022-08-05T02:30:04.193Z,86.02
2022-08-05T02:31:04.308Z,85.62
2022-08-05T02:32:04.772Z,86.36
2022-08-05T02:33:03.427Z,86.66
2022-08-05T02:34:03.580Z,86.76
2022-08-05T02:35:13.826Z,87.16
2022-08-05T02:36:03.546Z,87.60
2022-08-05T02:37:04.401Z,87.50
2022-08-05T02:38:04.164Z,87.99
2022-08-05T02:39:04.049Z,87.80
2022-08-05T02:40:03.970Z,87.80
2022-08-05T02:41:06.401Z,88.43
2022-08-05T02:42:03.430Z,87.94
2022-08-05T02:43:03.308Z,88.24
2022-08-05T02:44:11.286Z,87.94
2022-08-05T02:45:03.339Z,87.78
2022-08-05T02:46:03.349Z,87.98
2022-08-05T02:47:04.159Z,87.88
2022-08-05T02:48:11.898Z,87.78
2022-08-05T02:49:03.948Z,87.88
2022-08-05T02:50:03.684Z,88.02
2022-08-05T02:51:04.075Z,87.73
2022-08-05T02:52:04.841Z,87.62
2022-08-05T02:53:03.666Z,87.82
2022-08-05T02:54:04.284Z,87.76
2022-08-05T02:55:05.120Z,88.06
2022-08-05T02:56:04.023Z,87.87
2022-08-05T02:57:03.854Z,87.73
2022-08-05T02:58:11.988Z,87.62
2022-08-05T02:59:03.758Z,87.32
2022-08-05T03:00:03.606Z,87.02
2022-08-05T03:01:03.626Z,86.87
2022-08-05T03:02:04.149Z,87.27
2022-08-05T03:03:07.738Z,87.16
2022-08-05T03:04:08.874Z,86.97
2022-08-05T03:05:04.053Z,87.07
2022-08-05T03:06:55.040Z,86.77
2022-08-05T03:06:55.961Z,86.66
2022-08-05T03:06:57.161Z,86.77
2022-08-05T03:08:04.565Z,86.22
2022-08-05T03:08:42.798Z,86.22
2022-08-05T03:09:43.912Z,86.43
2022-08-05T03:10:40.821Z,86.33
2022-08-05T03:11:54.769Z,85.83
2022-08-05T03:12:30.719Z,85.72
2022-08-05T03:13:51.605Z,85.42
2022-08-05T03:14:30.317Z,85.63
2022-08-05T03:15:30.218Z,84.99
2022-08-05T03:16:31.559Z,84.69
2022-08-05T03:17:08.952Z,84.99
2022-08-05T03:18:04.620Z,84.19
2022-08-05T03:19:17.123Z,84.79
2022-08-05T03:20:04.789Z,84.39
2022-08-05T03:21:05.083Z,85.19
2022-08-05T03:22:05.057Z,84.69
2022-08-05T03:23:03.733Z,85.49
2022-08-05T03:24:03.793Z,84.79
2022-08-05T03:25:31.862Z,85.05
2022-08-05T03:26:31.844Z,84.95
2022-08-05T03:27:06.776Z,84.95
2022-08-05T03:28:04.787Z,85.14
2022-08-05T03:29:04.783Z,85.05
2022-08-05T03:30:08.362Z,84.84
2022-08-05T03:31:04.790Z,84.99
2022-08-05T03:32:04.919Z,84.89
2022-08-05T03:33:05.755Z,85.88
2022-08-05T03:34:04.994Z,85.78
2022-08-05T03:35:05.543Z,85.19
2022-08-05T03:36:06.680Z,86.08
2022-08-05T03:37:05.254Z,84.99
2022-08-05T03:38:04.692Z,85.88
2022-08-05T03:39:05.135Z,85.99
2022-08-05T03:40:05.077Z,85.99
2022-08-05T03:41:10.782Z,85.39
2022-08-05T03:42:04.498Z,85.09
2022-08-05T03:43:59.029Z,85.39
2022-08-05T03:44:11.599Z,85.39
2022-08-05T03:45:22.642Z,85.39
2022-08-05T03:46:04.169Z,85.49
2022-08-05T03:47:04.175Z,85.78
2022-08-05T03:48:04.706Z,86.03
2022-08-05T03:49:04.215Z,86.43
2022-08-05T03:50:04.498Z,86.13
2022-08-05T03:52:35.266Z,85.93
2022-08-05T03:52:38.008Z,86.33
2022-08-05T03:55:07.137Z,85.72
2022-08-05T03:55:53.609Z,86.03
2022-08-05T03:56:00.690Z,86.13
2022-08-05T03:56:12.214Z,86.43
2022-08-05T03:57:16.481Z,85.83
2022-08-05T03:58:04.030Z,86.13
2022-08-05T03:59:04.366Z,86.13
2022-08-05T04:00:04.444Z,85.53
2022-08-05T04:01:04.689Z,85.83
2022-08-05T04:02:05.214Z,85.93
2022-08-05T04:03:04.998Z,86.97
2022-08-05T04:04:09.691Z,86.87
2022-08-05T04:05:05.229Z,85.33
2022-08-05T04:06:05.289Z,85.42
2022-08-05T04:06:35.426Z,87.07
2022-08-05T04:06:47.741Z,87.46
2022-08-05T04:07:57.629Z,85.97
2022-08-05T04:08:40.689Z,84.93
2022-08-05T04:09:53.809Z,84.53
2022-08-05T04:10:41.102Z,84.23
2022-08-05T04:11:47.722Z,83.83
2022-08-05T04:12:30.085Z,86.63
2022-08-05T04:13:51.142Z,86.03
2022-08-05T04:14:31.148Z,84.73
2022-08-05T04:15:33.188Z,84.63
2022-08-05T04:16:32.476Z,85.03
2022-08-05T04:16:35.738Z,85.03
2022-08-05T04:17:05.013Z,85.53
2022-08-05T04:18:07.280Z,86.33
2022-08-05T04:19:10.537Z,88.62
2022-08-05T04:20:05.290Z,87.02
2022-08-05T04:21:04.428Z,85.63
2022-08-05T04:22:09.258Z,88.02
2022-08-05T04:23:04.462Z,86.03
2022-08-05T04:24:06.250Z,85.57
2022-08-05T04:25:04.679Z,88.37
2022-08-05T04:26:04.632Z,88.76
2022-08-05T04:27:04.631Z,89.06
2022-08-05T04:28:11.244Z,88.17
2022-08-05T04:29:07.083Z,87.46
2022-08-05T04:30:04.461Z,86.36
2022-08-05T04:31:08.417Z,85.47
2022-08-05T04:32:05.351Z,87.66
2022-08-05T04:33:05.394Z,88.17
2022-08-05T04:34:32.024Z,87.27
2022-08-05T04:35:05.018Z,86.66
2022-08-05T04:36:16.246Z,86.97
2022-08-05T04:37:04.849Z,87.66
2022-08-05T04:38:06.410Z,89.11
2022-08-05T04:39:04.507Z,89.61
2022-08-05T04:40:04.620Z,90.61
2022-08-05T04:41:04.941Z,90.50
2022-08-05T04:42:04.945Z,90.30
2022-08-05T04:43:05.135Z,90.20
2022-08-05T04:44:08.838Z,89.85
2022-08-05T04:45:04.429Z,89.95
2022-08-05T04:46:05.254Z,90.15
2022-08-05T04:47:09.505Z,91.15
2022-08-05T04:48:04.227Z,91.64
2022-08-05T04:49:04.749Z,91.45
2022-08-05T04:50:11.296Z,91.89
2022-08-05T04:51:11.499Z,91.99
2022-08-05T04:52:04.758Z,92.19
2022-08-05T04:53:05.086Z,91.15
2022-08-05T04:54:04.881Z,91.75
2022-08-05T04:55:15.034Z,91.59
2022-08-05T04:56:33.214Z,92.49
2022-08-05T04:57:05.388Z,92.09
2022-08-05T04:58:05.146Z,92.09
2022-08-05T04:59:22.301Z,90.45
2022-08-05T05:00:05.528Z,90.89
2022-08-05T05:01:05.294Z,89.85
2022-08-05T05:02:35.755Z,90.75
2022-08-05T05:03:05.320Z,90.75
2022-08-05T05:04:05.359Z,91.05
2022-08-05T05:05:16.857Z,90.55
2022-08-05T05:06:38.890Z,90.84
2022-08-05T05:06:44.655Z,91.25
2022-08-05T05:07:35.566Z,91.64
2022-08-05T05:08:33.082Z,92.25
2022-08-05T05:09:32.655Z,90.95
2022-08-05T05:10:33.776Z,88.95
2022-08-05T05:11:41.985Z,89.15
2022-08-05T05:11:53.972Z,88.75
2022-08-05T05:12:37.302Z,90.35
2022-08-05T05:13:43.304Z,89.20
2022-08-05T05:14:37.516Z,88.51
2022-08-05T05:15:56.451Z,87.71
2022-08-05T05:16:37.855Z,87.41
2022-08-05T05:16:41.847Z,87.41
2022-08-05T05:17:04.019Z,87.30
2022-08-05T05:18:03.922Z,87.71
2022-08-05T05:19:18.699Z,88.60
2022-08-05T05:20:04.346Z,88.71
2022-08-05T05:21:05.527Z,87.61
2022-08-05T05:22:23.991Z,86.91
2022-08-05T05:23:08.459Z,86.91
2022-08-05T05:24:09.166Z,86.41
2022-08-05T05:25:16.692Z,86.41
2022-08-05T05:26:04.648Z,86.87
2022-08-05T05:27:04.458Z,86.47
2022-08-05T05:28:04.918Z,86.07
2022-08-05T05:29:14.293Z,85.87
2022-08-05T05:30:05.284Z,85.77
2022-08-05T05:31:05.769Z,86.66
2022-08-05T05:32:03.833Z,87.27
2022-08-05T05:33:13.903Z,88.06
2022-08-05T05:34:04.017Z,89.26
2022-08-05T05:35:03.995Z,89.47
2022-08-05T05:36:04.117Z,89.26
2022-08-05T05:37:04.420Z,89.56
2022-08-05T05:38:05.664Z,89.26
2022-08-05T05:39:04.552Z,88.67
2022-08-05T05:40:04.599Z,88.56
2022-08-05T05:41:04.456Z,88.96
2022-08-05T05:42:04.007Z,89.26
2022-08-05T05:43:04.239Z,88.86
2022-08-05T05:44:04.457Z,88.96
2022-08-05T05:45:04.313Z,88.06
2022-08-05T05:46:05.246Z,87.57
2022-08-05T05:47:21.382Z,87.46
2022-08-05T05:48:06.831Z,88.17
2022-08-05T05:49:06.488Z,88.46
2022-08-05T05:50:04.544Z,88.72
2022-08-05T05:51:14.772Z,88.02
2022-08-05T05:52:07.235Z,87.42
2022-08-05T05:53:21.202Z,87.12
2022-08-05T05:54:05.065Z,87.73
2022-08-05T05:55:07.398Z,87.62
2022-08-05T05:56:04.808Z,87.62
2022-08-05T05:57:04.165Z,87.12
2022-08-05T05:58:04.489Z,87.52
2022-08-05T05:59:05.361Z,87.12
2022-08-05T06:00:03.999Z,88.12
2022-08-05T06:01:12.790Z,88.52
2022-08-05T06:02:04.541Z,88.52
2022-08-05T06:03:40.624Z,88.22
2022-08-05T06:04:04.762Z,88.02
2022-08-05T06:05:10.415Z,88.02
2022-08-05T06:06:03.917Z,89.72
2022-08-05T06:06:47.817Z,89.92
2022-08-05T06:07:41.529Z,88.78
2022-08-05T06:08:32.778Z,88.38
2022-08-05T06:09:59.831Z,87.48
2022-08-05T06:10:29.420Z,87.08
2022-08-05T06:11:28.804Z,86.79
2022-08-05T06:11:43.748Z,86.58
2022-08-05T06:12:42.482Z,86.49
2022-08-05T06:13:50.561Z,86.68
2022-08-05T06:14:43.028Z,86.19
2022-08-05T06:16:30.169Z,86.38
2022-08-05T06:16:42.639Z,86.88
2022-08-05T06:16:46.635Z,86.88
2022-08-05T06:17:22.282Z,87.08
2022-08-05T06:18:02.769Z,86.19
2022-08-05T06:19:05.706Z,85.78
2022-08-05T06:20:03.120Z,85.64
2022-08-05T06:21:03.193Z,88.43
2022-08-05T06:22:02.914Z,88.04
2022-08-05T06:23:04.140Z,87.14
2022-08-05T06:24:03.004Z,86.74
2022-08-05T06:25:59.642Z,86.64
2022-08-05T06:26:13.625Z,86.54
2022-08-05T06:27:03.990Z,86.54
2022-08-05T06:28:10.865Z,87.04
2022-08-05T06:29:06.043Z,87.44
2022-08-05T06:30:16.716Z,87.44
2022-08-05T06:31:11.068Z,86.44
2022-08-05T06:32:03.719Z,86.64
2022-08-05T06:33:03.241Z,86.94
2022-08-05T06:34:07.072Z,86.84
2022-08-05T06:35:06.166Z,86.64
2022-08-05T06:36:10.044Z,86.40
2022-08-05T06:37:02.638Z,86.50
2022-08-05T06:38:11.142Z,86.50
2022-08-05T06:39:02.431Z,86.80
2022-08-05T06:40:02.575Z,86.40
2022-08-05T06:41:02.393Z,86.50
2022-08-05T06:42:04.164Z,86.60
2022-08-05T06:43:03.045Z,87.00
2022-08-05T06:44:03.004Z,87.00
2022-08-05T06:45:05.539Z,86.80
2022-08-05T06:46:06.945Z,86.80
2022-08-05T06:47:03.175Z,87.10
2022-08-05T06:48:36.310Z,87.10
2022-08-05T06:49:07.571Z,87.80
2022-08-05T06:50:05.360Z,87.65
2022-08-05T06:51:03.180Z,86.86
2022-08-05T06:52:03.734Z,86.96
2022-08-05T06:53:11.404Z,86.96
2022-08-05T06:54:03.406Z,86.66
2022-08-05T06:55:03.220Z,86.86
2022-08-05T06:56:03.172Z,87.16
2022-08-05T06:57:57.980Z,86.96
2022-08-05T06:58:29.010Z,86.86
2022-08-05T06:59:03.068Z,87.85
2022-08-05T07:00:02.879Z,87.55
2022-08-05T07:01:03.396Z,87.16
2022-08-05T07:02:03.405Z,87.00
2022-08-05T07:03:02.519Z,87.50
2022-08-05T07:04:03.284Z,88.10
2022-08-05T07:05:03.030Z,87.60
2022-08-05T07:06:06.086Z,87.80
2022-08-05T07:06:50.432Z,86.90
2022-08-05T07:07:24.264Z,87.70
2022-08-05T07:08:22.290Z,88.25
2022-08-05T07:09:22.202Z,87.80
2022-08-05T07:10:21.986Z,87.90
2022-08-05T07:11:25.401Z,87.70
2022-08-05T07:11:51.525Z,87.60
2022-08-05T07:12:49.161Z,88.10
2022-08-05T07:13:59.207Z,88.59
2022-08-05T07:14:49.030Z,88.49
2022-08-05T07:16:01.652Z,88.40
2022-08-05T07:17:58.198Z,89.09
2022-08-05T07:18:08.589Z,88.79
2022-08-05T07:18:09.132Z,88.40
2022-08-05T07:19:03.440Z,88.29
2022-08-05T07:20:34.180Z,88.49
2022-08-05T07:21:04.762Z,89.19
2022-08-05T07:22:02.969Z,89.00
2022-08-05T07:23:04.495Z,89.89
2022-08-05T07:24:03.570Z,88.70
2022-08-05T07:25:23.620Z,88.79
2022-08-05T07:26:02.527Z,88.65
2022-08-05T07:27:02.855Z,88.65
2022-08-05T07:28:05.726Z,88.85
2022-08-05T07:29:02.676Z,88.95
2022-08-05T07:30:27.399Z,88.75
2022-08-05T07:31:02.365Z,88.45
2022-08-05T07:32:03.869Z,88.25
2022-08-05T07:33:05.350Z,87.35
2022-08-05T07:34:02.875Z,87.95
2022-08-05T07:35:55.692Z,87.95
2022-08-05T07:36:20.246Z,88.29
2022-08-05T07:37:01.579Z,88.79
2022-08-05T07:38:02.384Z,88.29
2022-08-05T07:39:02.249Z,88.49
2022-08-05T07:40:25.913Z,88.89
2022-08-05T07:41:17.163Z,88.89
2022-08-05T07:42:13.039Z,87.99
2022-08-05T07:43:13.795Z,87.80
2022-08-05T07:44:02.651Z,87.80
2022-08-05T07:45:03.196Z,87.99
2022-08-05T07:46:02.044Z,88.10
2022-08-05T07:47:07.941Z,88.29
2022-08-05T07:48:03.200Z,88.70
2022-08-05T07:49:05.883Z,88.89
2022-08-05T07:50:06.463Z,88.20
2022-08-05T07:51:03.207Z,87.70
2022-08-05T07:52:02.757Z,86.96
2022-08-05T07:53:03.008Z,87.16
2022-08-05T07:54:02.788Z,86.96
2022-08-05T07:55:02.869Z,87.35
2022-08-05T07:56:06.220Z,87.05
2022-08-05T07:57:23.625Z,86.96
2022-08-05T07:58:03.891Z,87.16
2022-08-05T07:59:02.305Z,87.05
2022-08-05T08:00:02.146Z,87.55
2022-08-05T08:01:02.212Z,87.20
2022-08-05T08:02:01.994Z,87.99
2022-08-05T08:03:14.729Z,87.70
2022-08-05T08:04:02.076Z,87.50
2022-08-05T08:05:02.068Z,87.50
2022-08-05T08:06:01.997Z,87.90
2022-08-05T08:06:54.112Z,87.26
2022-08-05T08:07:16.262Z,87.26
2022-08-05T08:08:16.760Z,88.06
2022-08-05T08:09:16.659Z,87.46
2022-08-05T08:10:16.278Z,87.05
2022-08-05T08:11:16.311Z,86.96
2022-08-05T08:12:01.819Z,87.16
2022-08-05T08:12:54.589Z,87.35
2022-08-05T08:14:00.704Z,87.35
2022-08-05T08:14:54.374Z,87.16
2022-08-05T08:16:50.439Z,87.35
2022-08-05T08:16:54.608Z,87.70
2022-08-05T08:17:02.732Z,87.80
2022-08-05T08:18:05.042Z,87.40
2022-08-05T08:19:02.631Z,87.99
2022-08-05T08:20:21.381Z,87.85
2022-08-05T08:21:04.077Z,88.06
2022-08-05T08:22:03.327Z,87.35
2022-08-05T08:23:03.481Z,87.46
2022-08-05T08:24:05.257Z,86.60
2022-08-05T08:25:03.988Z,87.50
2022-08-05T08:26:04.640Z,87.85
2022-08-05T08:27:02.769Z,88.45
2022-08-05T08:28:02.774Z,88.06
2022-08-05T08:29:45.226Z,86.86
2022-08-05T08:30:06.688Z,86.96
2022-08-05T08:31:02.494Z,87.05
2022-08-05T08:32:03.104Z,87.02
2022-08-05T08:33:04.462Z,86.22
2022-08-05T08:34:02.927Z,86.72
2022-08-05T08:35:03.020Z,86.91
2022-08-05T08:36:29.623Z,86.82
2022-08-05T08:37:04.714Z,87.21
2022-08-05T08:38:02.289Z,86.82
2022-08-05T08:39:02.560Z,86.91
2022-08-05T08:40:03.636Z,86.22
2022-08-05T08:41:02.880Z,85.92
2022-08-05T08:42:04.618Z,86.61
2022-08-05T08:43:20.952Z,86.61
2022-08-05T08:45:20.089Z,86.82
2022-08-05T08:45:23.840Z,86.87
2022-08-05T08:46:02.708Z,86.87
2022-08-05T08:47:03.110Z,86.28
2022-08-05T08:48:10.659Z,86.47
2022-08-05T08:50:05.746Z,85.88
2022-08-05T08:50:22.231Z,85.58
2022-08-05T08:51:22.519Z,85.38
2022-08-05T08:52:13.431Z,85.98
2022-08-05T08:53:03.541Z,85.88
2022-08-05T08:54:03.110Z,85.18
2022-08-05T08:55:03.324Z,85.28
2022-08-05T08:56:05.813Z,85.38
2022-08-05T08:57:03.212Z,85.08
2022-08-05T08:58:02.785Z,85.18
2022-08-05T08:59:09.774Z,84.48
2022-08-05T09:00:04.378Z,85.28
2022-08-05T09:01:02.976Z,83.25
2022-08-05T09:02:03.650Z,84.84
2022-08-05T09:03:03.350Z,85.24
2022-08-05T09:04:03.742Z,84.34
2022-08-05T09:05:17.539Z,83.95
2022-08-05T09:06:09.005Z,83.85
2022-08-05T09:06:58.861Z,83.95
2022-08-05T09:07:19.568Z,84.34
2022-08-05T09:08:12.746Z,83.71
2022-08-05T09:09:12.041Z,82.81
2022-08-05T09:10:12.184Z,82.46
2022-08-05T09:11:13.972Z,81.36
2022-08-05T09:12:04.609Z,82.35
2022-08-05T09:12:59.880Z,83.95
2022-08-05T09:14:09.116Z,83.85
2022-08-05T09:15:05.997Z,83.05
2022-08-05T09:15:58.432Z,83.35
2022-08-05T09:16:58.451Z,83.25
2022-08-05T09:17:03.593Z,83.35
2022-08-05T09:18:03.557Z,83.31
2022-08-05T09:19:06.777Z,82.86
2022-08-05T09:20:05.225Z,82.76
2022-08-05T09:21:03.391Z,83.15
2022-08-05T09:22:22.849Z,82.95
2022-08-05T09:23:05.234Z,82.65
2022-08-05T09:24:03.683Z,83.55
2022-08-05T09:25:13.720Z,82.51
2022-08-05T09:26:06.205Z,82.02
2022-08-05T09:27:04.001Z,81.82
2022-08-05T09:28:06.479Z,82.32
2022-08-05T09:29:03.782Z,83.51
2022-08-05T09:30:06.533Z,83.11
2022-08-05T09:31:23.353Z,82.22
2022-08-05T09:32:42.352Z,80.83
2022-08-05T09:33:04.780Z,81.82
2022-08-05T09:34:04.058Z,81.62
2022-08-05T09:35:03.724Z,81.82
2022-08-05T09:36:07.784Z,82.02
2022-08-05T09:37:04.758Z,80.73
2022-08-05T09:38:11.947Z,82.42
2022-08-05T09:39:18.376Z,81.72
2022-08-05T09:40:04.336Z,81.32
2022-08-05T09:41:04.307Z,82.32
2022-08-05T09:42:04.334Z,82.32
2022-08-05T09:43:03.874Z,82.97
2022-08-05T09:44:03.879Z,81.68
2022-08-05T09:46:04.682Z,81.78
2022-08-05T09:46:07.705Z,80.69
2022-08-05T09:47:04.789Z,80.59
2022-08-05T09:48:04.604Z,80.49
2022-08-05T09:49:08.105Z,80.69
2022-08-05T09:50:04.631Z,80.69
2022-08-05T09:51:04.386Z,80.19
2022-08-05T09:52:04.176Z,81.12
2022-08-05T09:53:03.860Z,80.73
2022-08-05T09:54:03.650Z,81.23
2022-08-05T09:55:55.212Z,80.93
2022-08-05T09:56:13.108Z,81.02
2022-08-05T09:57:04.595Z,81.02
2022-08-05T09:58:04.460Z,81.23
2022-08-05T09:59:04.523Z,80.83
2022-08-05T10:00:07.548Z,80.23
2022-08-05T10:01:13.360Z,80.23
2022-08-05T10:02:05.194Z,80.23
2022-08-05T10:03:05.144Z,80.66
2022-08-05T10:04:10.303Z,81.16
2022-08-05T10:05:04.672Z,81.26
2022-08-05T10:06:14.768Z,81.36
2022-08-05T10:07:20.063Z,81.26
2022-08-05T10:07:20.540Z,81.26
2022-08-05T10:08:35.704Z,81.56
2022-08-05T10:09:07.692Z,82.26
2022-08-05T10:10:15.041Z,80.66
2022-08-05T10:11:07.744Z,81.66
2022-08-05T10:12:18.848Z,81.70
2022-08-05T10:13:02.283Z,81.90
2022-08-05T10:14:02.095Z,81.36
2022-08-05T10:15:01.981Z,81.56
2022-08-05T10:16:01.620Z,81.06
2022-08-05T10:17:01.856Z,81.06
2022-08-05T10:17:05.135Z,80.96
2022-08-05T10:18:05.108Z,80.77
2022-08-05T10:19:09.368Z,80.36
2022-08-05T10:20:10.860Z,81.36
2022-08-05T10:21:06.275Z,80.36
2022-08-05T10:22:04.770Z,80.71
2022-08-05T10:23:04.435Z,80.80
2022-08-05T10:24:07.574Z,81.10
2022-08-05T10:25:03.933Z,80.90
2022-08-05T10:26:04.150Z,80.90
2022-08-05T10:27:04.803Z,80.71
2022-08-05T10:28:13.021Z,81.20
2022-08-05T10:29:05.004Z,81.10
2022-08-05T10:30:06.784Z,80.71
2022-08-05T10:32:48.340Z,80.30
2022-08-05T10:32:53.046Z,80.44
2022-08-05T10:33:05.407Z,80.94
2022-08-05T10:34:08.012Z,80.68
2022-08-05T10:35:05.051Z,81.08
2022-08-05T10:36:04.838Z,82.21
2022-08-05T10:37:04.634Z,81.82
2022-08-05T10:38:04.943Z,81.98
2022-08-05T10:39:05.306Z,81.58
2022-08-05T10:40:17.673Z,82.18
2022-08-05T10:41:04.203Z,82.18
2022-08-05T10:42:04.276Z,82.28
2022-08-05T10:43:04.717Z,82.18
2022-08-05T10:44:04.896Z,81.42
2022-08-05T10:45:20.807Z,82.02
2022-08-05T10:46:06.402Z,82.51
2022-08-05T10:47:04.533Z,82.18
2022-08-05T10:48:31.080Z,81.08
2022-08-05T10:49:06.416Z,81.28
2022-08-05T10:50:20.764Z,82.02
2022-08-05T10:51:04.861Z,81.92
2022-08-05T10:52:05.247Z,81.52
2022-08-05T10:53:04.451Z,81.52
2022-08-05T10:54:05.884Z,82.02
2022-08-05T10:55:04.340Z,82.02
2022-08-05T10:56:14.500Z,82.26
2022-08-05T10:57:04.484Z,81.36
2022-08-05T10:58:05.089Z,82.26
2022-08-05T10:59:07.263Z,82.26
2022-08-05T11:00:09.947Z,82.50
2022-08-05T11:01:05.109Z,83.19
2022-08-05T11:02:05.245Z,82.89
2022-08-05T11:03:25.464Z,83.00
2022-08-05T11:04:05.044Z,83.29
2022-08-05T11:05:05.402Z,83.39
2022-08-05T11:06:05.482Z,83.19
2022-08-05T11:07:05.195Z,83.23
2022-08-05T11:07:09.457Z,83.23
2022-08-05T11:08:12.746Z,83.13
2022-08-05T11:09:02.030Z,83.73
2022-08-05T11:10:03.970Z,83.77
2022-08-05T11:11:07.733Z,84.27
2022-08-05T11:12:01.832Z,84.37
2022-08-05T11:12:09.873Z,84.37
2022-08-05T11:13:06.903Z,84.47
2022-08-05T11:14:07.350Z,84.51
2022-08-05T11:15:19.376Z,84.91
2022-08-05T11:16:07.556Z,85.11
2022-08-05T11:17:53.339Z,85.31
2022-08-05T11:18:00.451Z,85.31
2022-08-05T11:18:04.439Z,84.97
2022-08-05T11:20:10.582Z,84.27
2022-08-05T11:20:16.938Z,84.57
2022-08-05T11:21:06.264Z,84.47
2022-08-05T11:22:04.507Z,84.51
2022-08-05T11:23:09.014Z,84.61
2022-08-05T11:24:14.797Z,84.61
2022-08-05T11:26:02.959Z,85.31
2022-08-05T11:26:08.796Z,85.75
2022-08-05T11:27:03.777Z,85.85
2022-08-05T11:28:04.499Z,86.05
2022-08-05T11:29:06.855Z,86.05
2022-08-05T11:30:04.177Z,86.25
2022-08-05T11:31:06.300Z,86.35
2022-08-05T11:32:04.573Z,86.45
2022-08-05T11:33:04.734Z,85.95
2022-08-05T11:34:04.701Z,85.25
2022-08-05T11:35:04.470Z,85.35
2022-08-05T11:36:04.579Z,85.59
2022-08-05T11:38:26.015Z,84.75
2022-08-05T11:38:28.946Z,84.39
2022-08-05T11:39:05.585Z,84.59
2022-08-05T11:40:04.775Z,84.89
2022-08-05T11:41:34.736Z,84.59
2022-08-05T11:42:04.900Z,84.49
2022-08-05T11:43:05.147Z,84.93
2022-08-05T11:44:08.118Z,84.83
2022-08-05T11:45:05.434Z,84.93
2022-08-05T11:46:15.429Z,84.63
2022-08-05T11:47:10.892Z,84.87
2022-08-05T11:48:05.025Z,84.87
2022-08-05T11:49:05.271Z,84.87
2022-08-05T11:50:05.077Z,84.77
2022-08-05T11:51:05.156Z,84.97
2022-08-05T11:52:08.309Z,84.37
2022-08-05T11:53:06.343Z,84.77
2022-08-05T11:54:05.872Z,84.37
2022-08-05T11:55:07.301Z,84.27
2022-08-05T11:56:05.775Z,83.97
2022-08-05T11:57:08.094Z,82.87
2022-08-05T11:58:10.521Z,83.37
2022-08-05T11:59:06.029Z,84.37
2022-08-05T12:00:05.875Z,83.77
2022-08-05T12:01:10.390Z,82.97
2022-08-05T12:02:05.603Z,82.93
2022-08-05T12:03:05.483Z,83.33
2022-08-05T12:04:05.494Z,82.63
2022-08-05T12:05:07.514Z,82.73
2022-08-05T12:06:06.101Z,82.73
2022-08-05T12:07:05.660Z,82.07
2022-08-05T12:07:14.375Z,82.17
2022-08-05T12:08:08.073Z,82.37
2022-08-05T12:08:57.603Z,82.17
2022-08-05T12:09:57.492Z,82.27
2022-08-05T12:10:57.350Z,82.37
2022-08-05T12:11:57.924Z,82.67
2022-08-05T12:12:14.907Z,83.27
2022-08-05T12:13:13.987Z,83.93
2022-08-05T12:14:12.462Z,83.73
2022-08-05T12:15:16.644Z,84.39
2022-08-05T12:16:14.894Z,82.59
2022-08-05T12:17:57.830Z,82.65
2022-08-05T12:18:04.273Z,82.65
2022-08-05T12:18:10.491Z,82.81
2022-08-05T12:19:04.265Z,80.82
2022-08-05T12:20:26.093Z,80.71
2022-08-05T12:21:03.877Z,79.11
2022-08-05T12:22:04.270Z,79.08